createdAt,value
2023-10-03T00:02:34.212Z,18.70
2023-10-03T00:05:36.750Z,20.17
2023-10-03T00:08:39.721Z,25.70
2023-10-03T00:11:42.051Z,27.88
2023-10-03T00:14:43.693Z,19.10
2023-10-03T00:17:46.209Z,18.88
2023-10-03T00:20:48.659Z,17.58
2023-10-03T00:23:50.806Z,18.00
2023-10-03T00:26:55.155Z,13.15
2023-10-03T00:29:56.966Z,17.27
2023-10-03T00:32:59.395Z,20.65
2023-10-03T00:36:01.485Z,21.65
2023-10-03T00:39:07.316Z,19.80
2023-10-03T00:42:10.385Z,19.20
2023-10-03T00:45:12.497Z,17.65
2023-10-03T00:48:14.634Z,18.10
2023-10-03T00:51:17.751Z,19.23
2023-10-03T00:54:20.044Z,18.05
2023-10-03T00:57:23.649Z,17.90
2023-10-03T01:00:26.478Z,17.27
2023-10-03T01:03:33.402Z,17.65
2023-10-03T01:06:35.506Z,21.45
2023-10-03T01:09:37.127Z,14.55
2023-10-03T01:12:38.739Z,11.48
2023-10-03T01:15:41.111Z,15.40
2023-10-03T01:18:44.198Z,15.68
2023-10-03T01:21:48.848Z,14.50
2023-10-03T01:24:51.695Z,19.75
2023-10-03T01:27:53.391Z,19.50
2023-10-03T01:30:55.364Z,18.65
2023-10-03T01:33:56.993Z,15.60
2023-10-03T01:36:59.460Z,14.68
2023-10-03T01:40:01.095Z,15.85
2023-10-03T01:43:03.173Z,19.45
2023-10-03T01:46:05.506Z,17.20
2023-10-03T01:49:07.689Z,19.38
2023-10-03T01:52:09.664Z,16.73
2023-10-03T01:55:13.543Z,14.98
2023-10-03T01:58:15.429Z,16.05
2023-10-03T02:01:17.174Z,18.15
2023-10-03T02:04:19.206Z,18.80
2023-10-03T02:07:21.963Z,18.52
2023-10-03T02:10:24.063Z,17.25
2023-10-03T02:13:26.177Z,19.38
2023-10-03T02:16:29.783Z,19.80
2023-10-03T02:19:31.755Z,17.95
2023-10-03T02:22:33.515Z,19.02
2023-10-03T02:25:38.431Z,19.15
2023-10-03T02:28:42.023Z,21.20
2023-10-03T02:31:47.611Z,18.83
2023-10-03T02:34:50.106Z,16.27
2023-10-03T02:37:53.703Z,20.90
2023-10-03T02:41:03.056Z,20.30
2023-10-03T02:44:08.492Z,18.42
2023-10-03T02:47:11.323Z,17.83
2023-10-03T02:50:14.789Z,15.25
2023-10-03T02:53:20.801Z,16.73
2023-10-03T02:56:23.921Z,18.67
2023-10-03T02:59:25.681Z,16.98
2023-10-03T03:02:27.727Z,17.42
2023-10-03T03:05:36.581Z,15.85
2023-10-03T03:08:41.543Z,18.35
2023-10-03T03:11:49.963Z,20.85
2023-10-03T03:14:53.748Z,17.05
2023-10-03T03:17:55.474Z,22.90
2023-10-03T03:21:00.524Z,20.17
2023-10-03T03:24:09.835Z,17.13
2023-10-03T03:27:13.295Z,21.33
2023-10-03T03:30:30.199Z,20.55
2023-10-03T03:33:32.607Z,20.35
2023-10-03T03:36:39.271Z,21.70
2023-10-03T03:39:53.097Z,20.17
2023-10-03T03:42:54.702Z,20.20
2023-10-03T03:45:56.410Z,19.17
2023-10-03T03:49:00.010Z,17.27
2023-10-03T03:52:01.833Z,21.83
2023-10-03T03:55:05.208Z,25.35
2023-10-03T03:58:12.437Z,21.17
2023-10-03T04:01:24.393Z,18.55
2023-10-03T04:04:26.373Z,18.10
2023-10-03T04:07:28.229Z,17.45
2023-10-03T04:10:29.856Z,16.27
2023-10-03T04:13:31.640Z,21.38
2023-10-03T04:16:39.747Z,20.08
2023-10-03T04:19:41.467Z,18.63
2023-10-03T04:22:43.326Z,16.17
2023-10-03T04:25:45.862Z,18.85
2023-10-03T04:28:47.843Z,18.33
2023-10-03T04:31:49.677Z,15.88
2023-10-03T04:34:51.402Z,20.98
2023-10-03T04:37:53.572Z,19.83
2023-10-03T04:40:56.016Z,20.23
2023-10-03T04:43:57.629Z,24.30
2023-10-03T04:46:59.710Z,20.25
2023-10-03T04:50:02.744Z,18.30
2023-10-03T04:53:07.046Z,17.25
2023-10-03T04:56:08.868Z,22.05
2023-10-03T04:59:10.559Z,18.88
2023-10-03T05:02:12.244Z,17.33
2023-10-03T05:05:19.926Z,19.27
2023-10-03T05:08:21.991Z,21.77
2023-10-03T05:11:24.009Z,17.42
2023-10-03T05:14:26.127Z,17.77
2023-10-03T05:17:28.317Z,21.58
2023-10-03T05:20:39.637Z,19.20
2023-10-03T05:23:42.747Z,17.10
2023-10-03T05:26:44.462Z,18.40
2023-10-03T05:29:46.504Z,18.38
2023-10-03T05:32:48.287Z,16.70
2023-10-03T05:35:50.166Z,20.67
2023-10-03T05:38:51.833Z,17.45
2023-10-03T05:41:57.517Z,20.05
2023-10-03T05:44:59.274Z,19.55
2023-10-03T05:48:01.246Z,15.38
2023-10-03T05:51:03.192Z,22.93
2023-10-03T05:54:07.995Z,17.20
2023-10-03T05:57:10.154Z,19.20
2023-10-03T06:00:17.994Z,19.83
2023-10-03T06:03:34.261Z,20.70
2023-10-03T06:06:36.670Z,18.27
2023-10-03T06:09:39.113Z,19.47
2023-10-03T06:12:43.339Z,18.27
2023-10-03T06:15:47.639Z,22.92
2023-10-03T06:18:49.591Z,22.00
2023-10-03T06:21:51.307Z,23.27
2023-10-03T06:24:58.184Z,19.08
2023-10-03T06:28:00.001Z,20.58
2023-10-03T06:31:01.875Z,20.73
2023-10-03T06:34:04.111Z,22.10
2023-10-03T06:37:06.168Z,21.97
2023-10-03T06:40:08.792Z,23.00
2023-10-03T06:43:10.583Z,20.98
2023-10-03T06:46:12.210Z,19.75
2023-10-03T06:49:15.261Z,21.77
2023-10-03T06:52:16.911Z,21.40
2023-10-03T06:55:18.572Z,18.73
2023-10-03T06:58:20.195Z,20.50
2023-10-03T07:01:21.833Z,23.45
2023-10-03T07:04:23.755Z,19.35
2023-10-03T07:07:25.955Z,18.35
2023-10-03T07:10:28.315Z,22.77
2023-10-03T07:13:30.325Z,21.23
2023-10-03T07:16:38.863Z,19.83
2023-10-03T07:19:40.850Z,17.77
2023-10-03T07:22:42.637Z,18.40
2023-10-03T07:25:44.275Z,20.42
2023-10-03T07:28:45.928Z,20.02
2023-10-03T07:31:48.197Z,17.33
2023-10-03T07:34:50.116Z,17.65
2023-10-03T07:37:52.991Z,20.48
2023-10-03T07:43:56.586Z,19.25
2023-10-03T07:46:58.194Z,19.77
2023-10-03T07:50:01.692Z,19.98
2023-10-03T07:53:05.147Z,17.58
2023-10-03T07:56:26.386Z,20.65
2023-10-03T07:59:28.294Z,19.33
2023-10-03T08:02:33.716Z,17.95
2023-10-03T08:05:35.635Z,20.42
2023-10-03T08:08:37.668Z,21.52
2023-10-03T08:11:39.449Z,20.02
2023-10-03T08:14:43.204Z,19.17
2023-10-03T08:17:46.787Z,17.52
2023-10-03T08:20:55.464Z,16.33
2023-10-03T08:23:58.671Z,16.73
2023-10-03T08:30:04.713Z,13.00
2023-10-03T08:33:06.732Z,16.13
2023-10-03T08:36:16.029Z,14.53
2023-10-03T08:39:18.758Z,14.77
2023-10-03T08:42:37.062Z,15.07
2023-10-03T08:45:44.184Z,12.13
2023-10-03T08:48:47.567Z,14.93
2023-10-03T08:51:49.581Z,11.02
2023-10-03T08:54:56.172Z,10.90
2023-10-03T08:58:01.362Z,12.27
2023-10-03T09:01:03.744Z,12.40
2023-10-03T09:04:16.914Z,10.77
2023-10-03T09:10:24.909Z,11.05
2023-10-03T09:13:29.522Z,12.82
2023-10-03T09:16:31.411Z,15.18
2023-10-03T09:19:44.048Z,9.75
2023-10-03T09:22:48.173Z,10.93
2023-10-03T09:25:57.053Z,9.60
2023-10-03T09:29:00.018Z,12.23
2023-10-03T09:32:15.491Z,12.38
2023-10-03T09:35:17.894Z,12.13
2023-10-03T09:38:26.286Z,10.50
2023-10-03T09:41:30.729Z,10.60
2023-10-03T09:44:32.608Z,8.35
2023-10-03T09:47:39.271Z,11.40
2023-10-03T09:50:52.446Z,10.13
2023-10-03T09:53:58.059Z,10.95
2023-10-03T09:57:02.049Z,10.20
2023-10-03T10:00:23.876Z,10.13
2023-10-03T10:03:37.641Z,10.82
2023-10-03T10:06:48.739Z,9.63
2023-10-03T10:10:02.305Z,11.80
2023-10-03T10:13:14.955Z,10.23
2023-10-03T10:16:21.884Z,13.23
2023-10-03T10:19:26.173Z,10.32
2023-10-03T10:23:00.230Z,14.48
2023-10-03T10:26:27.892Z,9.63
2023-10-03T10:29:35.169Z,8.73
2023-10-03T10:32:37.850Z,10.98
2023-10-03T10:36:04.396Z,10.88
2023-10-03T10:39:06.163Z,12.82
2023-10-03T10:42:11.750Z,9.65
2023-10-03T10:45:23.006Z,11.93
2023-10-03T10:48:40.602Z,10.18
2023-10-03T10:51:55.527Z,10.05
2023-10-03T10:54:57.865Z,7.90
2023-10-03T10:58:14.198Z,11.15
2023-10-03T11:01:17.216Z,9.25
2023-10-03T11:04:27.034Z,8.10
2023-10-03T11:07:30.280Z,8.80
2023-10-03T11:10:35.770Z,9.80
2023-10-03T11:13:46.977Z,8.00
2023-10-03T11:16:48.696Z,8.20
2023-10-03T11:19:56.637Z,8.98
2023-10-03T11:22:58.306Z,6.82
2023-10-03T11:26:01.222Z,8.43
2023-10-03T11:29:03.129Z,7.13
2023-10-03T11:32:06.775Z,7.37
2023-10-03T11:35:19.320Z,8.20
2023-10-03T11:38:21.076Z,8.32
2023-10-03T11:41:33.268Z,9.65
2023-10-03T11:44:35.118Z,9.18
2023-10-03T11:47:36.952Z,8.32
2023-10-03T11:50:39.839Z,6.68
2023-10-03T11:56:47.857Z,9.20
2023-10-03T11:59:49.551Z,9.48
2023-10-03T12:02:52.263Z,6.53
2023-10-03T12:08:59.669Z,5.72
2023-10-03T12:12:01.948Z,6.75
2023-10-03T12:15:04.560Z,8.52
2023-10-03T12:18:06.458Z,7.18
2023-10-03T12:21:08.124Z,10.47
2023-10-03T12:24:09.859Z,6.72
2023-10-03T12:27:11.946Z,7.53
2023-10-03T12:30:16.520Z,7.57
2023-10-03T12:33:20.207Z,9.65
2023-10-03T12:36:22.449Z,8.70
2023-10-03T12:39:26.133Z,6.93
2023-10-03T12:42:30.026Z,9.98
2023-10-03T12:45:31.717Z,7.90
2023-10-03T12:48:33.839Z,6.90
2023-10-03T12:51:35.565Z,8.07
2023-10-03T12:54:37.243Z,3.88
2023-10-03T12:57:38.908Z,4.15
2023-10-03T13:00:43.093Z,3.17
2023-10-03T13:03:48.124Z,3.58
2023-10-03T13:06:51.378Z,4.07
2023-10-03T13:12:56.347Z,4.45
2023-10-03T13:15:58.671Z,3.88
2023-10-03T13:19:02.385Z,4.30
2023-10-03T13:22:04.970Z,4.13
2023-10-03T13:25:08.872Z,4.22
2023-10-03T13:28:13.200Z,3.15
2023-10-03T13:31:14.910Z,2.72
2023-10-03T13:34:17.638Z,3.00
2023-10-03T13:37:20.012Z,3.00
2023-10-03T13:40:23.052Z,2.45
2023-10-03T13:43:28.777Z,2.63
2023-10-03T13:46:33.325Z,2.65
2023-10-03T13:49:35.018Z,2.10
2023-10-03T13:52:38.607Z,3.20
2023-10-03T13:55:40.366Z,2.97
2023-10-03T13:58:41.996Z,2.75
2023-10-03T14:01:43.729Z,2.95
2023-10-03T14:04:45.929Z,3.22
2023-10-03T14:10:50.497Z,3.05
2023-10-03T14:13:54.175Z,3.10
2023-10-03T14:17:01.300Z,3.15
2023-10-03T14:20:03.143Z,4.45
2023-10-03T14:23:04.737Z,3.38
2023-10-03T14:26:07.079Z,5.00
2023-10-03T14:29:09.030Z,3.53
2023-10-03T14:32:12.015Z,3.17
2023-10-03T14:35:14.184Z,2.47
2023-10-03T14:38:16.777Z,1.70
2023-10-03T14:41:20.292Z,2.75
2023-10-03T14:44:21.975Z,1.40
2023-10-03T14:47:23.656Z,2.63
2023-10-03T14:50:25.342Z,2.42
2023-10-03T14:53:28.483Z,1.88
2023-10-03T14:56:30.180Z,1.67
2023-10-03T14:59:32.096Z,3.85
2023-10-03T15:02:33.793Z,2.10
2023-10-03T15:05:35.661Z,2.90
2023-10-03T15:08:37.586Z,2.92
2023-10-03T15:11:39.247Z,3.33
2023-10-03T15:14:41.886Z,3.00
2023-10-03T15:17:43.957Z,2.17
2023-10-03T15:20:46.384Z,2.42
2023-10-03T15:23:48.086Z,2.70
2023-10-03T15:26:49.832Z,3.05
2023-10-03T15:29:52.035Z,3.07
2023-10-03T15:32:53.943Z,1.83
2023-10-03T15:35:56.946Z,2.53
2023-10-03T15:38:59.220Z,2.75
2023-10-03T15:42:01.139Z,4.25
2023-10-03T15:48:10.457Z,3.72
2023-10-03T15:51:15.691Z,1.65
2023-10-03T15:54:18.133Z,4.13
2023-10-03T15:57:20.233Z,3.13
2023-10-03T16:00:22.140Z,1.73
2023-10-03T16:03:24.246Z,3.92
2023-10-03T16:06:26.149Z,2.63
2023-10-03T16:09:27.902Z,2.72
2023-10-03T16:12:32.103Z,3.70
2023-10-03T16:15:34.362Z,2.05
2023-10-03T16:18:37.455Z,2.83
2023-10-03T16:21:42.796Z,3.25
2023-10-03T16:24:45.226Z,3.08
2023-10-03T16:27:47.784Z,2.92
2023-10-03T16:30:49.712Z,4.13
2023-10-03T16:33:51.721Z,3.10
2023-10-03T16:36:53.457Z,3.10
2023-10-03T16:39:55.394Z,3.45
2023-10-03T16:42:57.784Z,1.85
2023-10-03T16:46:04.321Z,3.35
2023-10-03T16:49:07.542Z,2.33
2023-10-03T16:52:09.226Z,2.05
2023-10-03T16:55:11.916Z,3.35
2023-10-03T16:58:13.709Z,3.53
2023-10-03T17:01:15.381Z,2.35
2023-10-03T17:04:17.866Z,2.83
2023-10-03T17:07:19.640Z,2.38
2023-10-03T17:10:21.876Z,3.38
2023-10-03T17:13:23.512Z,2.33
2023-10-03T17:16:25.269Z,2.85
2023-10-03T17:19:26.940Z,2.88
2023-10-03T17:22:28.813Z,2.40
2023-10-03T17:25:32.139Z,2.45
2023-10-03T17:28:33.820Z,2.75
2023-10-03T17:31:36.356Z,3.10
2023-10-03T17:34:38.065Z,2.05
2023-10-03T17:37:40.870Z,2.30
2023-10-03T17:40:42.604Z,2.63
2023-10-03T17:43:45.321Z,2.13
2023-10-03T17:46:47.056Z,4.00
2023-10-03T17:49:50.723Z,2.33
2023-10-03T17:52:53.934Z,3.47
2023-10-03T17:55:56.767Z,1.48
2023-10-03T18:02:03.424Z,1.40
2023-10-03T18:05:07.010Z,3.88
2023-10-03T18:08:09.361Z,4.30
2023-10-03T18:11:10.996Z,3.42
2023-10-03T18:14:13.586Z,2.28
2023-10-03T18:17:15.291Z,2.75
2023-10-03T18:20:17.023Z,2.78
2023-10-03T18:23:23.171Z,3.00
2023-10-03T18:26:24.855Z,2.70
2023-10-03T18:29:26.667Z,1.95
2023-10-03T18:32:28.533Z,2.92
2023-10-03T18:35:30.530Z,3.58
2023-10-03T18:38:33.977Z,3.60
2023-10-03T18:41:35.735Z,2.78
2023-10-03T18:44:37.395Z,3.58
2023-10-03T18:47:41.248Z,2.13
2023-10-03T18:50:43.750Z,2.97
2023-10-03T18:53:47.883Z,2.72
2023-10-03T18:56:50.083Z,4.50
2023-10-03T18:59:51.818Z,5.60
2023-10-03T19:02:53.579Z,3.60
2023-10-03T19:05:55.582Z,2.85
2023-10-03T19:08:57.658Z,3.42
2023-10-03T19:11:59.571Z,2.80
2023-10-03T19:15:01.985Z,4.50
2023-10-03T19:18:04.283Z,5.20
2023-10-03T19:21:06.758Z,4.23
2023-10-03T19:24:08.734Z,3.08
2023-10-03T19:27:10.786Z,2.58
2023-10-03T19:30:15.922Z,3.85
2023-10-03T19:33:19.978Z,3.15
2023-10-03T19:36:21.862Z,4.35
2023-10-03T19:39:24.258Z,5.07
2023-10-03T19:42:26.610Z,3.83
2023-10-03T19:45:29.364Z,2.40
2023-10-03T19:48:32.457Z,4.97
2023-10-03T19:51:34.278Z,2.95
2023-10-03T19:54:35.976Z,4.00
2023-10-03T19:57:39.888Z,3.75
2023-10-03T20:00:41.763Z,3.70
2023-10-03T20:03:45.708Z,3.45
2023-10-03T20:06:50.313Z,3.25
2023-10-03T20:09:52.336Z,4.63
2023-10-03T20:12:54.048Z,4.78
2023-10-03T20:15:55.643Z,5.00
2023-10-03T20:18:57.518Z,3.70
2023-10-03T20:22:00.593Z,3.97
2023-10-03T20:31:09.371Z,4.00
2023-10-03T20:34:10.976Z,4.30
2023-10-03T20:37:14.480Z,3.92
2023-10-03T20:40:17.084Z,4.40
2023-10-03T20:43:19.840Z,2.75
2023-10-03T20:46:22.052Z,4.57
2023-10-03T20:49:23.727Z,4.93
2023-10-03T20:52:26.383Z,3.45
2023-10-03T20:55:29.277Z,4.38
2023-10-03T20:58:31.007Z,2.67
2023-10-03T21:01:32.787Z,3.50
2023-10-03T21:04:35.432Z,3.88
2023-10-03T21:07:38.559Z,2.03
2023-10-03T21:10:41.901Z,4.30
2023-10-03T21:13:44.237Z,3.35
2023-10-03T21:16:45.841Z,3.57
2023-10-03T21:19:47.499Z,4.07
2023-10-03T21:22:49.870Z,3.67
2023-10-03T21:25:52.051Z,7.50
2023-10-03T21:28:54.950Z,4.65
2023-10-03T21:31:56.615Z,7.90
2023-10-03T21:34:58.876Z,3.78
2023-10-03T21:38:00.602Z,5.57
2023-10-03T21:41:02.312Z,2.63
2023-10-03T21:44:04.136Z,5.47
2023-10-03T21:47:06.121Z,7.47
2023-10-03T21:50:08.635Z,5.27
2023-10-03T21:53:13.775Z,5.60
2023-10-03T21:56:15.564Z,5.53
2023-10-03T21:59:17.281Z,5.80
2023-10-03T22:02:19.771Z,3.55
2023-10-03T22:05:22.753Z,4.38
2023-10-03T22:08:25.325Z,6.45
2023-10-03T22:11:27.188Z,4.68
2023-10-03T22:14:29.290Z,5.72
2023-10-03T22:17:31.186Z,6.10
2023-10-03T22:20:33.447Z,4.13
2023-10-03T22:23:35.234Z,6.03
2023-10-03T22:26:38.063Z,6.65
2023-10-03T22:29:39.898Z,5.20
2023-10-03T22:32:42.099Z,3.80
2023-10-03T22:35:44.049Z,4.75
2023-10-03T22:38:47.461Z,3.28
2023-10-03T22:41:49.169Z,3.67
2023-10-03T22:44:50.820Z,3.53
2023-10-03T22:47:52.496Z,4.03
2023-10-03T22:50:54.731Z,3.03
2023-10-03T22:53:56.500Z,6.18
2023-10-03T22:56:59.066Z,4.75
2023-10-03T23:00:01.294Z,2.97
2023-10-03T23:03:03.924Z,3.97
2023-10-03T23:06:05.802Z,3.65
2023-10-03T23:09:07.617Z,4.95
2023-10-03T23:12:12.034Z,4.18
2023-10-03T23:15:15.475Z,5.93
2023-10-03T23:18:17.802Z,3.83
2023-10-03T23:21:19.657Z,3.88
2023-10-03T23:24:21.397Z,8.73
2023-10-03T23:27:24.834Z,6.72
2023-10-03T23:33:28.325Z,4.45
2023-10-03T23:36:30.611Z,5.55
2023-10-03T23:39:32.332Z,4.30
2023-10-03T23:42:34.800Z,7.30
2023-10-03T23:45:37.793Z,4.97
2023-10-03T23:48:41.035Z,4.38
2023-10-03T23:54:44.638Z,3.90
2023-10-03T23:57:49.795Z,3.95
